Time;durP1;ratioP1;P1;durP2;ratioP2;P2;SDS_P1;SDS_P2;PMS_P1;PMS_P2;Temp;Humidity;BMP_temperature;BMP_pressure;BME280_temperature;BME280_humidity;BME280_pressure;Samples;Min_cycle;Max_cycle;Signal;HPM_P1;HPM_P2
2023/10/03 00:02:21;;;;;;;11.52;7.28;;;;;;;10.35;100.00;93984.88;5065727;28;20098;-76
2023/10/03 00:04:48;;;;;;;14.93;7.68;;;;;;;10.13;100.00;93965.22;5065535;28;20060;-76
2023/10/03 00:07:15;;;;;;;12.13;7.65;;;;;;;10.16;100.00;93979.44;5069281;28;20045;-76
2023/10/03 00:09:44;;;;;;;12.90;7.97;;;;;;;10.12;100.00;93991.88;5069090;28;20052;-76
2023/10/03 00:12:11;;;;;;;10.40;6.40;;;;;;;10.01;100.00;93985.47;5063173;28;20094;-76
2023/10/03 00:14:38;;;;;;;11.43;7.18;;;;;;;9.98;100.00;93992.75;5069143;28;20040;-76
2023/10/03 00:17:04;;;;;;;11.38;7.43;;;;;;;9.97;100.00;93993.72;5069318;28;20052;-76
2023/10/03 00:19:31;;;;;;;13.07;8.00;;;;;;;9.93;100.00;93998.44;5062714;28;20048;-76
2023/10/03 00:21:58;;;;;;;11.25;7.38;;;;;;;10.03;100.00;93996.34;5067165;28;20056;-76
2023/10/03 00:24:25;;;;;;;10.38;7.38;;;;;;;9.79;100.00;93964.19;5065453;28;20054;-76
2023/10/03 00:26:54;;;;;;;11.63;7.57;;;;;;;10.03;100.00;94001.47;5064346;28;20044;-77
2023/10/03 00:29:23;;;;;;;12.25;8.02;;;;;;;9.94;100.00;93994.88;5065164;28;20088;-76
2023/10/03 00:31:52;;;;;;;15.60;8.65;;;;;;;10.02;100.00;93991.41;5067796;28;20067;-75
2023/10/03 00:34:22;;;;;;;11.48;7.85;;;;;;;10.03;100.00;93988.66;5064953;28;20048;-75
2023/10/03 00:36:52;;;;;;;11.68;7.35;;;;;;;9.94;100.00;93997.44;5066794;28;20506;-75
2023/10/03 00:39:19;;;;;;;11.65;7.35;;;;;;;9.93;100.00;93988.16;5063119;28;20059;-76
2023/10/03 00:41:46;;;;;;;12.77;7.82;;;;;;;9.92;100.00;93998.63;5068173;28;20573;-75
2023/10/03 00:44:19;;;;;;;12.10;8.25;;;;;;;9.96;100.00;93992.91;5062798;28;20132;-75
2023/10/03 00:46:46;;;;;;;14.40;8.60;;;;;;;9.97;100.00;93989.41;5064397;28;20044;-75
2023/10/03 00:49:14;;;;;;;12.98;7.55;;;;;;;9.88;100.00;93980.25;5067507;28;20052;-75
2023/10/03 00:51:44;;;;;;;11.55;8.02;;;;;;;9.90;100.00;93978.28;5063914;28;20072;-75
2023/10/03 00:54:12;;;;;;;11.95;8.13;;;;;;;9.97;100.00;93993.72;5068812;28;20057;-75
2023/10/03 00:56:43;;;;;;;12.13;7.32;;;;;;;9.94;100.00;93994.09;5066297;28;20040;-75
2023/10/03 00:59:10;;;;;;;12.60;7.72;;;;;;;9.84;100.00;93989.28;5061666;28;20496;-75
2023/10/03 01:01:38;;;;;;;12.18;8.23;;;;;;;9.84;100.00;93992.66;5068306;28;20051;-75
2023/10/03 01:04:16;;;;;;;12.05;7.75;;;;;;;9.78;100.00;93990.03;5060368;28;20136;-75
2023/10/03 01:06:43;;;;;;;12.68;7.65;;;;;;;9.68;100.00;93996.25;5065413;28;20546;-75
2023/10/03 01:09:20;;;;;;;10.35;7.07;;;;;;;9.63;100.00;93998.59;5067319;28;20060;-75
2023/10/03 01:11:51;;;;;;;10.52;7.30;;;;;;;9.55;100.00;93996.16;5063946;28;20143;-75
2023/10/03 01:14:18;;;;;;;11.25;7.13;;;;;;;9.45;100.00;93997.22;5067306;28;20052;-76
2023/10/03 01:16:48;;;;;;;12.57;7.60;;;;;;;9.43;100.00;93996.63;5064293;28;20052;-76
2023/10/03 01:19:20;;;;;;;10.93;7.05;;;;;;;9.37;100.00;93999.94;5063099;28;20078;-75
2023/10/03 01:21:49;;;;;;;11.35;7.65;;;;;;;9.36;100.00;93996.56;5067835;28;20041;-74
2023/10/03 01:24:24;;;;;;;13.02;7.28;;;;;;;9.19;100.00;93972.13;5062061;28;20139;-74
2023/10/03 01:26:52;;;;;;;11.75;7.63;;;;;;;9.35;100.00;93997.53;5062537;28;20501;-74
2023/10/03 01:29:19;;;;;;;12.45;7.50;;;;;;;9.20;100.00;93978.84;5066364;28;20067;-75
2023/10/03 01:31:48;;;;;;;11.57;7.13;;;;;;;9.18;100.00;93991.88;5067807;28;20049;-75
2023/10/03 01:34:16;;;;;;;11.70;8.80;;;;;;;9.19;100.00;93990.06;5064889;28;20045;-74
2023/10/03 01:36:45;;;;;;;12.75;6.97;;;;;;;9.18;100.00;93988.50;5061759;28;20044;-74
2023/10/03 01:39:14;;;;;;;12.43;7.85;;;;;;;9.18;100.00;93993.63;5066844;28;20053;-75
2023/10/03 01:41:42;;;;;;;13.40;7.32;;;;;;;9.12;100.00;93984.88;5062262;28;20048;-74
2023/10/03 01:44:09;;;;;;;10.55;7.05;;;;;;;9.21;100.00;93983.78;5062646;28;20095;-74
2023/10/03 01:46:38;;;;;;;12.63;7.85;;;;;;;9.13;100.00;93986.47;5065579;28;20055;-74
2023/10/03 01:49:06;;;;;;;10.63;6.70;;;;;;;9.12;100.00;93991.78;5063701;28;20048;-75
2023/10/03 01:51:32;;;;;;;10.77;7.13;;;;;;;9.08;100.00;93979.31;5067366;28;20390;-74
2023/10/03 01:54:00;;;;;;;10.75;7.70;;;;;;;9.07;100.00;93987.19;5065474;28;20041;-74
2023/10/03 01:56:26;;;;;;;14.23;7.30;;;;;;;9.04;100.00;93997.81;5066402;28;20139;-74
2023/10/03 01:58:55;;;;;;;12.05;7.45;;;;;;;9.04;100.00;93992.69;5063619;28;20059;-74
2023/10/03 02:01:24;;;;;;;12.18;7.63;;;;;;;9.01;100.00;93987.91;5063498;28;20049;-75
2023/10/03 02:03:51;;;;;;;11.32;7.70;;;;;;;9.03;100.00;93973.94;5063354;28;20411;-75
2023/10/03 02:06:19;;;;;;;13.30;8.35;;;;;;;9.01;100.00;93970.78;5064375;28;20075;-74
2023/10/03 02:08:48;;;;;;;11.50;7.18;;;;;;;8.97;100.00;93966.19;5065356;28;20053;-75
2023/10/03 02:11:16;;;;;;;12.20;7.47;;;;;;;9.02;100.00;93974.91;5067305;28;20082;-75
2023/10/03 02:13:42;;;;;;;11.82;6.75;;;;;;;9.02;100.00;93969.78;5065522;28;20076;-75
2023/10/03 02:16:12;;;;;;;12.80;7.05;;;;;;;9.00;100.00;93961.50;5060066;28;20055;-74
2023/10/03 02:18:40;;;;;;;11.13;7.07;;;;;;;8.94;100.00;93964.78;5065489;28;20488;-74
2023/10/03 02:21:07;;;;;;;10.65;6.78;;;;;;;8.89;100.00;93954.28;5060983;28;20558;-75
2023/10/03 02:23:35;;;;;;;11.95;6.95;;;;;;;8.90;100.00;93961.78;5061745;28;20066;-75
2023/10/03 02:26:10;;;;;;;17.65;7.75;;;;;;;8.81;100.00;93957.75;5065540;28;20413;-75
2023/10/03 02:28:37;;;;;;;12.68;8.05;;;;;;;8.91;100.00;93960.00;5059867;28;20040;-75
2023/10/03 02:31:07;;;;;;;12.63;7.70;;;;;;;8.83;100.00;93960.91;5059406;28;20501;-75
2023/10/03 02:33:37;;;;;;;11.43;7.15;;;;;;;8.79;100.00;93936.63;5066520;28;20400;-75
2023/10/03 02:36:05;;;;;;;12.27;7.40;;;;;;;8.72;100.00;93941.69;5060119;28;20064;-75
2023/10/03 02:38:36;;;;;;;10.38;7.22;;;;;;;8.66;100.00;93934.72;5066834;28;20052;-76
2023/10/03 02:41:06;;;;;;;11.63;6.90;;;;;;;8.75;100.00;93955.91;5061266;28;20516;-75
2023/10/03 02:43:35;;;;;;;14.48;7.35;;;;;;;8.68;100.00;93954.06;5063954;28;20044;-75
2023/10/03 02:46:05;;;;;;;11.75;6.70;;;;;;;8.61;100.00;93952.38;5062665;28;20056;-75
2023/10/03 02:48:33;;;;;;;11.27;6.78;;;;;;;8.64;100.00;93954.56;5066693;28;20052;-75
2023/10/03 02:51:02;;;;;;;13.20;7.07;;;;;;;8.61;100.00;93958.28;5066443;28;20098;-75
2023/10/03 02:53:29;;;;;;;12.23;7.50;;;;;;;8.58;100.00;93963.78;5066411;28;20496;-75
2023/10/03 02:55:56;;;;;;;11.32;6.63;;;;;;;8.52;100.00;93955.03;5062128;28;20053;-75
2023/10/03 02:58:23;;;;;;;14.95;7.75;;;;;;;8.19;100.00;93927.22;5060506;28;20416;-75
2023/10/03 03:00:53;;;;;;;12.43;7.63;;;;;;;8.37;100.00;93956.78;5064590;28;20053;-75
2023/10/03 03:03:21;;;;;;;13.23;7.50;;;;;;;8.43;100.00;93959.44;5057844;28;20055;-74
2023/10/03 03:05:49;;;;;;;12.45;7.38;;;;;;;8.40;100.00;93948.75;5066741;28;20048;-74
2023/10/03 03:08:27;;;;;;;12.05;7.65;;;;;;;8.46;100.00;93962.63;5059712;28;20150;-74
2023/10/03 03:10:58;;;;;;;14.68;7.45;;;;;;;8.38;100.00;93963.50;5066548;28;20110;-74
2023/10/03 03:13:26;;;;;;;11.82;7.60;;;;;;;8.36;100.00;93960.31;5066380;28;20393;-75
2023/10/03 03:15:56;;;;;;;12.23;8.63;;;;;;;8.35;100.00;93962.09;5059431;28;20056;-75
2023/10/03 03:18:24;;;;;;;14.48;8.15;;;;;;;8.28;100.00;93966.31;5065167;28;20048;-75
2023/10/03 03:20:57;;;;;;;12.40;7.55;;;;;;;8.23;100.00;93959.16;5064538;28;20116;-75
2023/10/03 03:23:30;;;;;;;13.18;8.63;;;;;;;8.29;100.00;93966.13;5063053;28;20041;-75
2023/10/03 03:26:09;;;;;;;12.63;8.13;;;;;;;8.29;100.00;93968.69;5066536;28;20560;-75
2023/10/03 03:28:37;;;;;;;14.75;8.30;;;;;;;8.24;100.00;93973.53;5064306;28;20045;-75
2023/10/03 03:31:16;;;;;;;17.33;9.73;;;;;;;8.14;100.00;93960.22;5062815;28;20556;-75
2023/10/03 03:33:46;;;;;;;14.52;9.10;;;;;;;8.17;100.00;93965.00;5062964;28;20072;-74
2023/10/03 03:36:17;;;;;;;14.80;9.45;;;;;;;8.25;100.00;93975.13;5063683;28;20044;-75
2023/10/03 03:38:46;;;;;;;12.60;8.63;;;;;;;8.24;100.00;93978.66;5058977;28;20126;-75
2023/10/03 03:41:13;;;;;;;14.25;8.73;;;;;;;8.27;100.00;93964.72;5068273;28;20512;-75
2023/10/03 03:43:40;;;;;;;15.88;9.57;;;;;;;8.23;100.00;93961.72;5069439;28;20145;-75
2023/10/03 03:46:08;;;;;;;12.93;8.68;;;;;;;8.31;100.00;93977.97;5068953;28;21112;-75
2023/10/03 03:48:36;;;;;;;15.35;8.85;;;;;;;8.31;100.00;93971.09;5065735;28;20499;-75
2023/10/03 03:51:05;;;;;;;12.70;8.25;;;;;;;8.33;100.00;93979.38;5069075;28;20049;-75
2023/10/03 03:53:32;;;;;;;12.30;8.25;;;;;;;8.40;100.00;93980.28;5069378;28;20094;-75
2023/10/03 03:56:04;;;;;;;16.65;7.88;;;;;;;8.29;100.00;93967.91;5065937;28;20088;-75
2023/10/03 03:58:31;;;;;;;12.13;8.20;;;;;;;8.10;100.00;93946.19;5067605;28;20044;-75
2023/10/03 04:01:00;;;;;;;13.57;8.57;;;;;;;8.26;100.00;93975.94;5069323;28;20052;-74
2023/10/03 04:03:29;;;;;;;15.80;8.02;;;;;;;8.28;100.00;93989.34;5068970;28;20052;-74
2023/10/03 04:05:57;;;;;;;12.63;7.35;;;;;;;8.28;100.00;93984.22;5065504;28;20040;-75
2023/10/03 04:08:24;;;;;;;10.63;7.55;;;;;;;8.24;100.00;93985.56;5066434;28;20128;-75
2023/10/03 04:10:53;;;;;;;12.15;6.82;;;;;;;8.18;100.00;93981.16;5064285;28;20051;-75
2023/10/03 04:13:21;;;;;;;12.10;7.75;;;;;;;8.15;100.00;93988.19;5068295;28;20056;-75
2023/10/03 04:15:50;;;;;;;11.48;7.95;;;;;;;8.12;100.00;93973.19;5062438;28;20048;-75
2023/10/03 04:18:17;;;;;;;12.13;8.52;;;;;;;8.17;100.00;93988.03;5069091;28;20443;-75
2023/10/03 04:20:46;;;;;;;13.38;7.32;;;;;;;8.15;100.00;93987.41;5063093;28;20126;-75
2023/10/03 04:23:14;;;;;;;14.50;8.20;;;;;;;8.08;100.00;93981.38;5066716;28;20072;-75
2023/10/03 04:25:41;;;;;;;14.43;8.60;;;;;;;8.08;100.00;93994.97;5069310;28;20044;-75
2023/10/03 04:28:09;;;;;;;13.80;7.90;;;;;;;8.00;100.00;93990.72;5062106;28;20217;-74
2023/10/03 04:30:39;;;;;;;14.68;7.90;;;;;;;7.95;100.00;93990.47;5069078;28;20408;-75
2023/10/03 04:33:06;;;;;;;13.65;7.63;;;;;;;7.79;100.00;93975.25;5064226;28;20102;-75
2023/10/03 04:35:35;;;;;;;12.90;8.07;;;;;;;7.84;100.00;93990.88;5064193;28;20048;-75
2023/10/03 04:38:04;;;;;;;14.35;8.05;;;;;;;7.85;100.00;93989.91;5059278;28;20049;-74
2023/10/03 04:40:34;;;;;;;15.88;8.43;;;;;;;7.83;100.00;93979.06;5068497;28;20051;-74
2023/10/03 04:43:07;;;;;;;14.68;8.02;;;;;;;7.84;100.00;93986.56;5068380;28;20063;-74
2023/10/03 04:45:35;;;;;;;15.70;8.05;;;;;;;7.83;100.00;93991.84;5067363;28;20044;-74
2023/10/03 04:48:04;;;;;;;16.73;7.75;;;;;;;7.80;100.00;93985.31;5063335;28;20526;-74
2023/10/03 04:50:31;;;;;;;14.32;8.07;;;;;;;7.85;100.00;93990.72;5070636;28;20049;-74
2023/10/03 04:53:00;;;;;;;16.67;8.77;;;;;;;7.82;100.00;93988.47;5067397;28;20044;-74
2023/10/03 04:55:27;;;;;;;15.25;9.30;;;;;;;7.81;100.00;93979.22;5069531;28;20056;-74
2023/10/03 04:57:54;;;;;;;14.30;7.90;;;;;;;7.87;100.00;93977.75;5070116;28;20052;-74
2023/10/03 05:00:23;;;;;;;14.25;7.97;;;;;;;7.90;100.00;93977.41;5069762;28;20201;-74
2023/10/03 05:02:51;;;;;;;15.20;9.50;;;;;;;7.96;100.00;93993.81;5071606;28;20059;-75
2023/10/03 05:05:20;;;;;;;13.68;8.45;;;;;;;7.85;100.00;93965.13;5072380;28;20056;-75
2023/10/03 05:07:49;;;;;;;17.85;8.88;;;;;;;8.03;100.00;93989.59;5070061;28;20052;-75
2023/10/03 05:10:17;;;;;;;12.95;8.30;;;;;;;8.09;100.00;93982.97;5082137;28;20048;-75
2023/10/03 05:12:45;;;;;;;17.58;8.02;;;;;;;8.12;100.00;93987.75;5063583;28;20045;-75
2023/10/03 05:15:14;;;;;;;15.52;8.32;;;;;;;8.12;100.00;93987.75;5087190;28;20044;-74
2023/10/03 05:17:43;;;;;;;18.20;9.48;;;;;;;7.93;100.00;93950.66;5083867;28;20044;-75
2023/10/03 05:20:11;;;;;;;19.38;8.93;;;;;;;8.16;100.00;93982.09;5073607;28;20052;-74
2023/10/03 05:22:40;;;;;;;16.05;8.95;;;;;;;8.25;100.00;93987.16;5068029;28;20519;-74
2023/10/03 05:25:11;;;;;;;14.98;7.88;;;;;;;8.04;100.00;93942.56;5059394;28;20071;-74
2023/10/03 05:27:38;;;;;;;17.77;8.50;;;;;;;8.37;100.00;93979.81;5070586;28;20097;-74
2023/10/03 05:30:08;;;;;;;13.20;8.65;;;;;;;8.50;100.00;93992.81;5086802;28;20059;-74
2023/10/03 05:32:35;;;;;;;14.90;8.32;;;;;;;8.65;100.00;93994.56;5087221;28;20044;-73
2023/10/03 05:35:04;;;;;;;16.75;9.13;;;;;;;8.69;100.00;93999.19;5071060;28;20425;-73
2023/10/03 05:37:33;;;;;;;17.02;8.63;;;;;;;8.73;100.00;93986.81;5071151;28;20449;-73
2023/10/03 05:40:11;;;;;;;20.33;9.02;;;;;;;8.63;100.00;93958.13;5068356;28;20052;-73
2023/10/03 05:42:41;;;;;;;15.82;8.77;;;;;;;8.92;100.00;93994.91;5063921;28;20555;-73
2023/10/03 05:45:10;;;;;;;14.80;9.18;;;;;;;8.75;100.00;93959.25;5073897;28;20356;-73
2023/10/03 05:47:37;;;;;;;14.40;8.85;;;;;;;9.13;100.00;93998.50;5086020;28;20492;-73
2023/10/03 05:50:04;;;;;;;17.02;9.10;;;;;;;9.20;100.00;93999.34;5066033;28;20059;-72
2023/10/03 05:52:31;;;;;;;17.92;10.63;;;;;;;9.32;100.00;93991.97;5064860;28;20055;-73
2023/10/03 05:54:59;;;;;;;29.20;12.20;;;;;;;9.40;100.00;93991.84;5075069;28;20052;-72
2023/10/03 05:57:27;;;;;;;30.92;14.00;;;;;;;9.49;100.00;94006.16;5068002;28;20044;-73
2023/10/03 05:59:54;;;;;;;24.25;13.57;;;;;;;9.60;100.00;94001.53;5071622;28;20063;-73
2023/10/03 06:02:21;;;;;;;21.58;12.00;;;;;;;9.68;100.00;93998.81;5068128;28;20044;-72
2023/10/03 06:04:49;;;;;;;22.35;13.10;;;;;;;9.77;100.00;94007.19;5067587;28;20167;-72
2023/10/03 06:07:16;;;;;;;24.00;13.70;;;;;;;9.90;100.00;94001.38;5069865;28;20044;-73
2023/10/03 06:09:43;;;;;;;21.60;12.10;;;;;;;9.94;100.00;93986.38;5065175;28;20333;-73
2023/10/03 06:12:10;;;;;;;23.83;12.50;;;;;;;10.11;100.00;94010.03;5065414;28;20052;-74
2023/10/03 06:14:40;;;;;;;21.05;11.93;;;;;;;10.05;100.00;94013.34;5066151;28;20131;-74
2023/10/03 06:17:08;;;;;;;20.02;11.65;;;;;;;10.15;100.00;94012.00;5065135;28;20527;-73
2023/10/03 06:19:35;;;;;;;16.20;11.10;;;;;;;10.26;100.00;94004.78;5068549;28;20136;-73
2023/10/03 06:22:03;;;;;;;14.20;9.82;;;;;;;10.47;100.00;94018.56;5086784;28;20051;-74
2023/10/03 06:24:31;;;;;;;19.35;11.77;;;;;;;10.64;100.00;94013.94;5086004;28;20062;-74
2023/10/03 06:26:58;;;;;;;17.05;10.60;;;;;;;10.72;100.00;94025.81;5073702;28;20135;-74
2023/10/03 06:29:25;;;;;;;16.98;10.30;;;;;;;10.79;100.00;94024.88;5075727;28;20044;-74
2023/10/03 06:31:53;;;;;;;16.55;11.02;;;;;;;10.68;100.00;94021.06;5085385;28;20059;-74
2023/10/03 06:34:20;;;;;;;18.13;10.52;;;;;;;10.81;100.00;94029.81;5075138;28;20496;-75
2023/10/03 06:36:47;;;;;;;16.80;10.35;;;;;;;10.97;100.00;94028.69;5064349;28;20044;-74
2023/10/03 06:39:14;;;;;;;18.77;10.13;;;;;;;11.11;100.00;94026.97;5082380;28;20044;-74
2023/10/03 06:41:41;;;;;;;17.20;11.13;;;;;;;11.22;100.00;94029.00;5084848;28;20135;-74
2023/10/03 06:44:08;;;;;;;13.80;9.43;;;;;;;11.15;100.00;94022.25;5082176;28;20052;-74
2023/10/03 06:46:37;;;;;;;16.42;11.00;;;;;;;11.19;100.00;94023.44;5070567;28;20148;-74
2023/10/03 06:49:05;;;;;;;23.40;10.43;;;;;;;11.38;100.00;94021.91;5068829;28;20055;-73
2023/10/03 06:51:32;;;;;;;23.13;11.38;;;;;;;11.27;100.00;93984.72;5067471;28;20049;-73
2023/10/03 06:53:59;;;;;;;15.48;9.90;;;;;;;11.65;100.00;94031.47;5067220;28;20053;-73
2023/10/03 06:56:32;;;;;;;21.95;12.05;;;;;;;11.80;100.00;94023.59;5067543;28;20048;-74
2023/10/03 06:58:59;;;;;;;27.48;11.77;;;;;;;12.03;100.00;94016.25;5065089;28;20102;-74
2023/10/03 07:01:25;;;;;;;23.52;13.32;;;;;;;12.27;100.00;94026.97;5072214;28;20056;-74
2023/10/03 07:03:53;;;;;;;22.83;11.07;;;;;;;12.47;100.00;94033.09;5066922;28;20041;-74
2023/10/03 07:06:22;;;;;;;28.83;11.55;;;;;;;12.43;100.00;94004.38;5064437;28;20049;-74
2023/10/03 07:08:49;;;;;;;20.35;10.23;;;;;;;12.74;100.00;94030.47;5065713;28;20045;-74
2023/10/03 07:11:16;;;;;;;15.95;10.35;;;;;;;12.89;100.00;94036.19;5069228;28;20420;-74
2023/10/03 07:13:43;;;;;;;19.88;10.23;;;;;;;13.06;100.00;94040.91;5070366;28;20044;-74
2023/10/03 07:16:11;;;;;;;22.65;10.10;;;;;;;13.23;99.67;94043.78;5070440;28;20060;-75
2023/10/03 07:18:39;;;;;;;16.63;10.32;;;;;;;13.35;97.91;94039.59;5069200;28;20458;-75
2023/10/03 07:21:06;;;;;;;21.38;9.50;;;;;;;13.45;98.27;94046.88;5069950;28;20037;-74
2023/10/03 07:23:34;;;;;;;18.92;8.65;;;;;;;13.47;96.69;94034.56;5068788;28;20049;-75
2023/10/03 07:26:02;;;;;;;16.30;8.90;;;;;;;13.53;96.79;94042.50;5067273;28;20044;-75
2023/10/03 07:28:29;;;;;;;16.25;10.38;;;;;;;13.59;97.73;94037.31;5067579;28;20051;-75
2023/10/03 07:30:57;;;;;;;19.35;9.70;;;;;;;13.82;95.90;94038.56;5069337;28;20389;-74
2023/10/03 07:33:23;;;;;;;19.13;10.50;;;;;;;13.97;93.60;94046.00;5069415;28;20106;-74
2023/10/03 07:35:50;;;;;;;21.23;10.20;;;;;;;13.92;94.08;94039.88;5064979;28;20053;-74
2023/10/03 07:38:17;;;;;;;28.00;10.38;;;;;;;14.10;93.00;94047.69;5063561;28;20041;-74
2023/10/03 07:40:46;;;;;;;19.52;9.93;;;;;;;14.33;92.17;94046.31;5066265;28;20049;-74
2023/10/03 07:43:13;;;;;;;18.55;9.48;;;;;;;14.48;90.39;94034.88;5068441;28;20045;-74
2023/10/03 07:45:40;;;;;;;18.27;9.55;;;;;;;14.68;91.11;94040.63;5070646;28;20121;-74
2023/10/03 07:48:09;;;;;;;20.35;10.23;;;;;;;14.91;89.92;94033.28;5071867;28;20043;-74
2023/10/03 07:50:37;;;;;;;18.73;8.38;;;;;;;15.02;87.23;94011.03;5065059;28;20045;-74
2023/10/03 07:53:05;;;;;;;18.27;8.93;;;;;;;15.42;85.49;94041.59;5087690;28;20048;-74
2023/10/03 07:55:35;;;;;;;16.77;7.80;;;;;;;15.56;84.52;94046.63;5076228;28;20052;-74
2023/10/03 07:58:03;;;;;;;17.65;8.02;;;;;;;15.74;84.90;94032.84;5065463;28;20045;-74
2023/10/03 08:00:30;;;;;;;14.55;7.70;;;;;;;16.10;83.50;94040.72;5077821;28;20090;-74
2023/10/03 08:02:58;;;;;;;16.95;7.75;;;;;;;15.93;80.65;94038.78;5070402;28;20408;-75
2023/10/03 08:05:27;;;;;;;13.70;8.40;;;;;;;16.06;80.23;94039.59;5067897;28;20102;-74
2023/10/03 08:07:56;;;;;;;11.93;7.03;;;;;;;16.01;80.43;94035.06;5074827;28;20056;-74
2023/10/03 08:10:28;;;;;;;13.65;7.53;;;;;;;16.15;80.99;94038.22;5070941;28;20106;-74
2023/10/03 08:12:55;;;;;;;14.35;7.68;;;;;;;16.09;80.37;94021.78;5069018;28;20082;-74
2023/10/03 08:15:31;;;;;;;15.65;8.45;;;;;;;16.18;79.49;94030.00;5071210;28;20056;-74
2023/10/03 08:17:59;;;;;;;12.43;7.30;;;;;;;16.23;79.10;94032.72;5072259;28;20048;-74
2023/10/03 08:20:28;;;;;;;11.70;6.40;;;;;;;16.33;76.01;94032.16;5071231;28;20060;-74
2023/10/03 08:22:55;;;;;;;15.00;6.65;;;;;;;16.64;78.75;94035.44;5070456;28;20048;-74
2023/10/03 08:25:24;;;;;;;15.90;7.38;;;;;;;16.70;75.60;94023.34;5070229;28;20611;-75
2023/10/03 08:27:52;;;;;;;8.98;5.93;;;;;;;16.52;74.60;94026.88;5068139;28;20139;-75
2023/10/03 08:30:29;;;;;;;14.38;8.45;;;;;;;16.46;75.25;94005.22;5070336;28;20052;-75
2023/10/03 08:33:00;;;;;;;21.02;8.63;;;;;;;16.43;75.46;94005.66;5070722;28;20063;-75
2023/10/03 08:35:37;;;;;;;15.85;7.70;;;;;;;16.75;74.73;94031.25;5070689;28;20084;-75
2023/10/03 08:38:05;;;;;;;11.75;7.25;;;;;;;16.93;76.15;94017.34;5069430;28;20052;-75
2023/10/03 08:40:36;;;;;;;14.65;7.50;;;;;;;17.25;73.16;94018.75;5069873;28;20142;-75
2023/10/03 08:43:11;;;;;;;16.38;7.45;;;;;;;17.50;70.54;94025.44;5070271;28;20052;-75
2023/10/03 08:45:43;;;;;;;15.80;7.00;;;;;;;17.69;69.14;94027.84;5070659;28;20044;-75
2023/10/03 08:48:11;;;;;;;11.80;6.20;;;;;;;17.73;68.72;94026.34;5069275;28;20659;-75
2023/10/03 08:50:46;;;;;;;14.10;7.20;;;;;;;17.81;71.13;93991.41;5074326;28;20059;-75
2023/10/03 08:53:26;;;;;;;12.38;7.22;;;;;;;18.26;69.61;94011.38;5068875;28;20052;-75
2023/10/03 08:55:57;;;;;;;10.80;6.53;;;;;;;18.50;68.26;94008.56;5072330;28;20045;-75
2023/10/03 08:58:26;;;;;;;12.10;6.50;;;;;;;18.95;68.27;94017.22;5073213;28;20072;-75
2023/10/03 09:00:58;;;;;;;11.70;5.75;;;;;;;19.26;66.57;94019.41;5076429;28;20067;-75
2023/10/03 09:03:42;;;;;;;13.88;7.72;;;;;;;19.49;61.35;94015.75;5073023;28;20044;-76
2023/10/03 09:06:09;;;;;;;13.43;6.05;;;;;;;19.54;60.20;94014.22;5073958;28;20060;-75
2023/10/03 09:08:36;;;;;;;11.63;5.50;;;;;;;19.67;61.56;94010.44;5070361;28;20049;-75
2023/10/03 09:11:13;;;;;;;12.63;6.03;;;;;;;19.81;61.22;94014.19;5077257;28;20056;-75
2023/10/03 09:13:45;;;;;;;16.10;6.15;;;;;;;20.06;61.71;94012.09;5068660;28;20376;-75
2023/10/03 09:16:14;;;;;;;14.18;7.03;;;;;;;20.31;61.35;94011.47;5070956;28;20179;-75
2023/10/03 09:18:43;;;;;;;8.95;5.40;;;;;;;20.54;60.26;94005.09;5070398;28;20427;-75
2023/10/03 09:21:15;;;;;;;10.15;5.35;;;;;;;20.62;60.00;93982.97;5081233;28;20052;-75
2023/10/03 09:24:09;;;;;;;11.07;5.65;;;;;;;21.07;58.33;94014.00;5073646;28;20066;-75
2023/10/03 09:26:46;;;;;;;9.98;5.53;;;;;;;21.11;55.99;94011.66;5065199;28;20045;-76
2023/10/03 09:29:18;;;;;;;10.60;5.78;;;;;;;21.26;55.41;94003.09;5069888;28;20075;-75
2023/10/03 09:31:47;;;;;;;15.57;7.13;;;;;;;21.14;53.12;94013.75;5068414;28;20051;-75
2023/10/03 09:34:16;;;;;;;16.00;6.70;;;;;;;20.79;54.19;94008.88;5069514;28;20083;-75
2023/10/03 09:36:43;;;;;;;17.80;6.53;;;;;;;20.64;53.97;94006.22;5072297;28;20052;-75
2023/10/03 09:39:20;;;;;;;13.63;6.18;;;;;;;20.85;56.64;94004.50;5072158;28;20052;-75
2023/10/03 09:41:52;;;;;;;15.80;6.15;;;;;;;21.02;54.44;94000.94;5069765;28;20052;-75
2023/10/03 09:44:29;;;;;;;11.68;5.70;;;;;;;20.78;51.98;93998.72;5069398;28;20059;-75
2023/10/03 09:47:00;;;;;;;11.48;5.85;;;;;;;20.90;52.41;94004.53;5071304;28;20504;-75
2023/10/03 09:49:36;;;;;;;11.88;5.60;;;;;;;20.83;54.07;93993.53;5068398;28;20170;-75
2023/10/03 09:52:07;;;;;;;11.40;6.25;;;;;;;20.42;54.70;93992.25;5071400;28;20094;-75
2023/10/03 09:54:36;;;;;;;13.00;7.05;;;;;;;20.76;56.41;93983.31;5073497;28;20044;-75
2023/10/03 09:57:15;;;;;;;13.27;5.60;;;;;;;21.12;54.42;93992.34;5070989;28;20135;-76
2023/10/03 09:59:45;;;;;;;12.02;5.72;;;;;;;21.44;55.13;93991.38;5069006;28;20048;-75
2023/10/03 10:02:14;;;;;;;18.67;7.05;;;;;;;21.65;51.80;93991.41;5068424;28;20804;-76
2023/10/03 10:04:44;;;;;;;12.57;6.07;;;;;;;21.50;51.78;93972.03;5068925;28;20492;-75
2023/10/03 10:07:17;;;;;;;10.85;5.43;;;;;;;21.68;51.44;93981.22;5072268;28;20056;-75
2023/10/03 10:09:59;;;;;;;11.88;5.20;;;;;;;21.06;51.79;93966.19;5073242;28;20086;-76
2023/10/03 10:12:26;;;;;;;13.43;5.97;;;;;;;20.60;53.46;93976.44;5074972;28;20500;-76
2023/10/03 10:15:26;;;;;;;19.88;6.05;;;;;;;20.40;55.21;93965.63;5071593;28;20048;-76
2023/10/03 10:17:55;;;;;;;13.80;6.07;;;;;;;20.67;53.71;93969.16;5076780;28;20044;-75
2023/10/03 10:20:37;;;;;;;12.68;5.53;;;;;;;20.63;53.95;93960.25;5074764;28;20079;-76
2023/10/03 10:23:13;;;;;;;11.70;5.75;;;;;;;20.43;55.20;93954.66;5068461;28;20048;-76
2023/10/03 10:25:49;;;;;;;14.20;6.07;;;;;;;20.80;54.99;93958.25;5071296;28;20051;-75
2023/10/03 10:28:21;;;;;;;12.38;5.70;;;;;;;21.11;55.15;93962.84;5068515;28;20051;-76
2023/10/03 10:31:24;;;;;;;10.80;5.38;;;;;;;20.77;54.20;93950.13;5068373;28;20044;-76
2023/10/03 10:34:20;;;;;;;15.13;6.60;;;;;;;21.12;55.97;93948.72;5067143;28;20040;-76
2023/10/03 10:37:01;;;;;;;13.45;5.95;;;;;;;21.54;54.72;93940.94;5067246;28;20055;-76
2023/10/03 10:40:09;;;;;;;13.57;6.72;;;;;;;21.80;52.41;93943.59;5069027;28;20090;-75
2023/10/03 10:43:08;;;;;;;11.70;5.75;;;;;;;21.90;51.11;93933.16;5069032;28;20039;-75
2023/10/03 10:45:42;;;;;;;12.73;5.35;;;;;;;22.02;51.78;93944.09;5072543;28;20058;-76
2023/10/03 10:48:11;;;;;;;10.43;5.75;;;;;;;21.92;51.24;93936.28;5071947;28;20091;-75
2023/10/03 10:51:10;;;;;;;9.43;5.40;;;;;;;22.07;50.55;93934.69;5066762;28;20163;-75
2023/10/03 10:53:44;;;;;;;10.70;5.63;;;;;;;21.84;51.40;93931.59;5073184;28;20927;-75
2023/10/03 10:56:12;;;;;;;12.90;5.57;;;;;;;21.81;51.68;93905.94;5072007;28;20873;-75
2023/10/03 10:58:47;;;;;;;14.55;5.35;;;;;;;21.48;51.94;93909.56;5074234;28;20049;-76
2023/10/03 11:01:15;;;;;;;9.95;5.10;;;;;;;21.25;52.91;93923.94;5072380;28;20044;-75
2023/10/03 11:03:43;;;;;;;11.20;5.18;;;;;;;21.57;54.10;93915.06;5073033;28;20036;-75
2023/10/03 11:06:15;;;;;;;11.13;5.18;;;;;;;21.67;52.34;93890.78;5074265;28;20420;-76
2023/10/03 11:08:48;;;;;;;9.38;5.03;;;;;;;22.10;51.93;93913.22;5076596;28;20421;-76
2023/10/03 11:11:15;;;;;;;13.25;4.95;;;;;;;22.39;52.44;93912.63;5072519;28;20052;-75
2023/10/03 11:13:47;;;;;;;9.45;4.50;;;;;;;22.57;48.15;93913.16;5075559;28;20802;-75
2023/10/03 11:16:28;;;;;;;7.75;4.63;;;;;;;22.74;49.74;93905.75;5070914;28;20064;-76
2023/10/03 11:18:58;;;;;;;8.95;4.35;;;;;;;22.88;50.06;93894.66;5072820;28;20413;-75
2023/10/03 11:21:25;;;;;;;10.23;4.43;;;;;;;23.32;49.26;93907.00;5073353;28;20052;-75
2023/10/03 11:24:16;;;;;;;11.90;5.15;;;;;;;23.42;48.23;93897.50;5084612;28;20468;-76
2023/10/03 11:26:48;;;;;;;8.45;3.88;;;;;;;23.66;45.77;93913.34;5074030;28;20044;-75
2023/10/03 11:29:16;;;;;;;9.48;4.22;;;;;;;23.69;44.64;93904.91;5072264;28;20053;-75
2023/10/03 11:31:44;;;;;;;7.05;4.00;;;;;;;23.52;44.97;93899.28;5076451;28;20062;-75
2023/10/03 11:34:11;;;;;;;9.07;4.28;;;;;;;23.65;45.97;93895.25;5074513;28;20058;-75
2023/10/03 11:36:42;;;;;;;8.10;4.60;;;;;;;23.68;45.53;93892.06;5071350;28;20075;-76
2023/10/03 11:39:13;;;;;;;9.60;4.35;;;;;;;23.80;46.01;93889.88;5071325;28;20052;-75